sensor_id;sensor_type;location;lat;lon;timestamp;P1;durP1;ratioP1;P2;durP2;ratioP2
13421;SDS011;6782;55.904;13.396;2023-01-25T00:01:43;42.97;;;28.90;;
13421;SDS011;6782;55.904;13.396;2023-01-25T00:04:32;44.40;;;30.20;;
13421;SDS011;6782;55.904;13.396;2023-01-25T00:07:19;42.00;;;30.83;;
13421;SDS011;6782;55.904;13.396;2023-01-25T00:10:07;40.83;;;31.13;;
13421;SDS011;6782;55.904;13.396;2023-01-25T00:12:55;42.47;;;30.87;;
13421;SDS011;6782;55.904;13.396;2023-01-25T00:15:43;40.60;;;29.13;;
13421;SDS011;6782;55.904;13.396;2023-01-25T00:18:30;42.33;;;30.83;;
13421;SDS011;6782;55.904;13.396;2023-01-25T00:21:20;44.03;;;31.33;;
13421;SDS011;6782;55.904;13.396;2023-01-25T00:24:09;45.13;;;31.87;;
13421;SDS011;6782;55.904;13.396;2023-01-25T00:26:58;47.03;;;32.97;;
13421;SDS011;6782;55.904;13.396;2023-01-25T00:29:46;45.33;;;32.67;;
13421;SDS011;6782;55.904;13.396;2023-01-25T00:32:41;46.47;;;31.60;;
13421;SDS011;6782;55.904;13.396;2023-01-25T00:35:35;45.50;;;31.50;;
13421;SDS011;6782;55.904;13.396;2023-01-25T00:38:26;43.97;;;31.50;;
13421;SDS011;6782;55.904;13.396;2023-01-25T00:41:16;45.57;;;33.17;;
13421;SDS011;6782;55.904;13.396;2023-01-25T00:44:03;42.43;;;30.90;;
13421;SDS011;6782;55.904;13.396;2023-01-25T00:46:51;46.03;;;32.83;;
13421;SDS011;6782;55.904;13.396;2023-01-25T00:49:40;46.77;;;32.87;;
13421;SDS011;6782;55.904;13.396;2023-01-25T00:52:28;50.37;;;33.53;;
13421;SDS011;6782;55.904;13.396;2023-01-25T00:55:17;44.57;;;32.37;;
13421;SDS011;6782;55.904;13.396;2023-01-25T00:58:05;47.80;;;32.60;;
13421;SDS011;6782;55.904;13.396;2023-01-25T01:00:52;46.23;;;34.47;;
13421;SDS011;6782;55.904;13.396;2023-01-25T01:03:40;47.73;;;32.60;;
13421;SDS011;6782;55.904;13.396;2023-01-25T01:06:27;42.63;;;30.37;;
13421;SDS011;6782;55.904;13.396;2023-01-25T01:09:16;45.17;;;32.67;;
13421;SDS011;6782;55.904;13.396;2023-01-25T01:12:06;44.03;;;30.17;;
13421;SDS011;6782;55.904;13.396;2023-01-25T01:14:54;44.73;;;31.63;;
13421;SDS011;6782;55.904;13.396;2023-01-25T01:17:42;44.30;;;32.97;;
13421;SDS011;6782;55.904;13.396;2023-01-25T01:20:30;46.60;;;33.33;;
13421;SDS011;6782;55.904;13.396;2023-01-25T01:23:18;49.60;;;34.63;;
13421;SDS011;6782;55.904;13.396;2023-01-25T01:26:06;46.40;;;33.07;;
13421;SDS011;6782;55.904;13.396;2023-01-25T01:28:57;46.30;;;32.33;;
13421;SDS011;6782;55.904;13.396;2023-01-25T01:31:44;47.43;;;34.43;;
13421;SDS011;6782;55.904;13.396;2023-01-25T01:34:32;45.90;;;32.33;;
13421;SDS011;6782;55.904;13.396;2023-01-25T01:37:20;51.10;;;32.70;;
13421;SDS011;6782;55.904;13.396;2023-01-25T01:40:08;43.57;;;30.73;;
13421;SDS011;6782;55.904;13.396;2023-01-25T01:43:01;47.00;;;32.33;;
13421;SDS011;6782;55.904;13.396;2023-01-25T01:45:53;46.47;;;31.43;;
13421;SDS011;6782;55.904;13.396;2023-01-25T01:48:42;46.37;;;33.10;;
13421;SDS011;6782;55.904;13.396;2023-01-25T01:51:37;47.50;;;33.03;;
13421;SDS011;6782;55.904;13.396;2023-01-25T01:54:29;43.13;;;29.60;;
13421;SDS011;6782;55.904;13.396;2023-01-25T01:57:22;50.93;;;33.33;;
13421;SDS011;6782;55.904;13.396;2023-01-25T02:00:13;45.00;;;31.70;;
13421;SDS011;6782;55.904;13.396;2023-01-25T02:03:06;48.23;;;32.47;;
13421;SDS011;6782;55.904;13.396;2023-01-25T02:05:56;48.57;;;31.80;;
13421;SDS011;6782;55.904;13.396;2023-01-25T02:08:48;50.17;;;33.67;;
13421;SDS011;6782;55.904;13.396;2023-01-25T02:11:37;49.47;;;33.23;;
13421;SDS011;6782;55.904;13.396;2023-01-25T02:14:26;50.43;;;35.03;;
13421;SDS011;6782;55.904;13.396;2023-01-25T02:17:15;46.17;;;31.87;;
13421;SDS011;6782;55.904;13.396;2023-01-25T02:20:08;44.83;;;31.57;;
13421;SDS011;6782;55.904;13.396;2023-01-25T02:23:07;43.80;;;30.23;;
13421;SDS011;6782;55.904;13.396;2023-01-25T02:26:04;47.53;;;31.63;;
13421;SDS011;6782;55.904;13.396;2023-01-25T02:28:54;45.97;;;32.53;;
13421;SDS011;6782;55.904;13.396;2023-01-25T02:31:44;46.50;;;30.57;;
13421;SDS011;6782;55.904;13.396;2023-01-25T02:34:33;44.23;;;30.63;;
13421;SDS011;6782;55.904;13.396;2023-01-25T02:37:21;45.17;;;31.33;;
13421;SDS011;6782;55.904;13.396;2023-01-25T02:40:09;43.47;;;29.70;;
13421;SDS011;6782;55.904;13.396;2023-01-25T02:42:59;44.13;;;30.37;;
13421;SDS011;6782;55.904;13.396;2023-01-25T02:45:48;46.43;;;29.47;;
13421;SDS011;6782;55.904;13.396;2023-01-25T02:48:40;41.03;;;28.63;;
13421;SDS011;6782;55.904;13.396;2023-01-25T02:51:30;43.97;;;31.03;;
13421;SDS011;6782;55.904;13.396;2023-01-25T02:54:19;42.73;;;29.73;;
13421;SDS011;6782;55.904;13.396;2023-01-25T02:57:06;45.67;;;29.57;;
13421;SDS011;6782;55.904;13.396;2023-01-25T02:59:56;44.60;;;30.40;;
13421;SDS011;6782;55.904;13.396;2023-01-25T03:02:43;44.10;;;29.93;;
13421;SDS011;6782;55.904;13.396;2023-01-25T03:05:31;40.20;;;28.30;;
13421;SDS011;6782;55.904;13.396;2023-01-25T03:08:19;39.90;;;28.40;;
13421;SDS011;6782;55.904;13.396;2023-01-25T03:11:06;42.97;;;30.47;;
13421;SDS011;6782;55.904;13.396;2023-01-25T03:13:54;42.17;;;29.33;;
13421;SDS011;6782;55.904;13.396;2023-01-25T03:16:43;41.10;;;29.03;;
13421;SDS011;6782;55.904;13.396;2023-01-25T03:19:30;43.50;;;29.07;;
13421;SDS011;6782;55.904;13.396;2023-01-25T03:22:18;39.33;;;28.33;;
13421;SDS011;6782;55.904;13.396;2023-01-25T03:25:06;42.77;;;29.73;;
13421;SDS011;6782;55.904;13.396;2023-01-25T03:27:54;41.60;;;30.27;;
13421;SDS011;6782;55.904;13.396;2023-01-25T03:30:41;42.37;;;29.00;;
13421;SDS011;6782;55.904;13.396;2023-01-25T03:33:31;44.40;;;30.73;;
13421;SDS011;6782;55.904;13.396;2023-01-25T03:36:18;44.53;;;30.13;;
13421;SDS011;6782;55.904;13.396;2023-01-25T03:39:06;45.93;;;31.20;;
13421;SDS011;6782;55.904;13.396;2023-01-25T03:41:53;43.43;;;29.70;;
13421;SDS011;6782;55.904;13.396;2023-01-25T03:44:41;44.37;;;30.00;;
13421;SDS011;6782;55.904;13.396;2023-01-25T03:47:29;42.37;;;30.40;;
13421;SDS011;6782;55.904;13.396;2023-01-25T03:50:18;41.63;;;30.87;;
13421;SDS011;6782;55.904;13.396;2023-01-25T03:53:05;40.43;;;29.90;;
13421;SDS011;6782;55.904;13.396;2023-01-25T03:56:05;45.90;;;30.33;;
13421;SDS011;6782;55.904;13.396;2023-01-25T03:58:54;43.03;;;31.23;;
13421;SDS011;6782;55.904;13.396;2023-01-25T04:01:41;45.20;;;32.50;;
13421;SDS011;6782;55.904;13.396;2023-01-25T04:04:29;43.33;;;31.63;;
13421;SDS011;6782;55.904;13.396;2023-01-25T04:07:18;45.00;;;31.60;;
13421;SDS011;6782;55.904;13.396;2023-01-25T04:10:06;46.97;;;32.43;;
13421;SDS011;6782;55.904;13.396;2023-01-25T04:12:54;46.17;;;32.50;;
13421;SDS011;6782;55.904;13.396;2023-01-25T04:15:42;46.10;;;30.83;;
13421;SDS011;6782;55.904;13.396;2023-01-25T04:18:29;43.47;;;30.93;;
13421;SDS011;6782;55.904;13.396;2023-01-25T04:21:17;43.63;;;30.57;;
13421;SDS011;6782;55.904;13.396;2023-01-25T04:24:07;41.83;;;31.37;;
13421;SDS011;6782;55.904;13.396;2023-01-25T04:26:54;44.60;;;31.93;;
13421;SDS011;6782;55.904;13.396;2023-01-25T04:29:42;41.13;;;29.67;;
13421;SDS011;6782;55.904;13.396;2023-01-25T04:32:29;45.67;;;33.47;;
13421;SDS011;6782;55.904;13.396;2023-01-25T04:35:16;43.00;;;31.03;;
13421;SDS011;6782;55.904;13.396;2023-01-25T04:38:04;44.47;;;32.80;;
13421;SDS011;6782;55.904;13.396;2023-01-25T04:40:54;44.13;;;31.23;;
13421;SDS011;6782;55.904;13.396;2023-01-25T04:43:41;42.23;;;31.77;;
13421;SDS011;6782;55.904;13.396;2023-01-25T04:46:28;41.70;;;31.17;;
13421;SDS011;6782;55.904;13.396;2023-01-25T04:49:16;43.27;;;32.03;;
13421;SDS011;6782;55.904;13.396;2023-01-25T04:52:03;42.80;;;32.73;;
13421;SDS011;6782;55.904;13.396;2023-01-25T04:54:51;46.57;;;32.97;;
13421;SDS011;6782;55.904;13.396;2023-01-25T04:57:40;45.07;;;32.53;;
13421;SDS011;6782;55.904;13.396;2023-01-25T05:00:30;45.27;;;33.43;;
13421;SDS011;6782;55.904;13.396;2023-01-25T05:03:18;46.03;;;33.37;;
13421;SDS011;6782;55.904;13.396;2023-01-25T05:06:05;41.73;;;31.50;;
13421;SDS011;6782;55.904;13.396;2023-01-25T05:08:53;46.07;;;32.93;;
13421;SDS011;6782;55.904;13.396;2023-01-25T05:11:40;45.07;;;32.57;;
13421;SDS011;6782;55.904;13.396;2023-01-25T05:14:29;46.57;;;33.20;;
13421;SDS011;6782;55.904;13.396;2023-01-25T05:17:16;45.53;;;32.07;;
13421;SDS011;6782;55.904;13.396;2023-01-25T05:20:04;48.00;;;33.37;;
13421;SDS011;6782;55.904;13.396;2023-01-25T05:22:52;43.67;;;32.30;;
13421;SDS011;6782;55.904;13.396;2023-01-25T05:25:40;45.53;;;33.40;;
13421;SDS011;6782;55.904;13.396;2023-01-25T05:28:46;47.03;;;35.13;;
13421;SDS011;6782;55.904;13.396;2023-01-25T05:31:35;48.53;;;33.50;;
13421;SDS011;6782;55.904;13.396;2023-01-25T05:34:23;46.20;;;34.07;;
13421;SDS011;6782;55.904;13.396;2023-01-25T05:37:13;45.37;;;33.30;;
13421;SDS011;6782;55.904;13.396;2023-01-25T05:40:03;44.90;;;31.87;;
13421;SDS011;6782;55.904;13.396;2023-01-25T05:42:54;46.17;;;33.40;;
13421;SDS011;6782;55.904;13.396;2023-01-25T05:45:42;45.73;;;32.07;;
13421;SDS011;6782;55.904;13.396;2023-01-25T05:48:31;46.30;;;33.10;;
13421;SDS011;6782;55.904;13.396;2023-01-25T05:51:19;41.37;;;31.10;;
13421;SDS011;6782;55.904;13.396;2023-01-25T05:54:08;44.70;;;32.23;;
13421;SDS011;6782;55.904;13.396;2023-01-25T05:56:58;43.13;;;31.30;;
13421;SDS011;6782;55.904;13.396;2023-01-25T05:59:45;45.80;;;33.80;;
13421;SDS011;6782;55.904;13.396;2023-01-25T06:02:33;44.67;;;32.87;;
13421;SDS011;6782;55.904;13.396;2023-01-25T06:05:23;45.83;;;33.00;;
13421;SDS011;6782;55.904;13.396;2023-01-25T06:08:10;44.87;;;31.83;;
13421;SDS011;6782;55.904;13.396;2023-01-25T06:10:57;46.03;;;34.17;;
13421;SDS011;6782;55.904;13.396;2023-01-25T06:13:45;42.10;;;31.40;;
13421;SDS011;6782;55.904;13.396;2023-01-25T06:16:33;45.47;;;32.83;;
13421;SDS011;6782;55.904;13.396;2023-01-25T06:19:20;45.63;;;32.73;;
13421;SDS011;6782;55.904;13.396;2023-01-25T06:22:10;47.50;;;34.20;;
13421;SDS011;6782;55.904;13.396;2023-01-25T06:24:57;43.33;;;31.60;;
13421;SDS011;6782;55.904;13.396;2023-01-25T06:27:44;47.70;;;34.63;;
13421;SDS011;6782;55.904;13.396;2023-01-25T06:30:32;43.87;;;32.47;;
13421;SDS011;6782;55.904;13.396;2023-01-25T06:33:20;47.90;;;33.37;;
13421;SDS011;6782;55.904;13.396;2023-01-25T06:36:09;45.57;;;32.43;;
13421;SDS011;6782;55.904;13.396;2023-01-25T06:39:00;47.63;;;32.97;;
13421;SDS011;6782;55.904;13.396;2023-01-25T06:41:47;47.23;;;32.93;;
13421;SDS011;6782;55.904;13.396;2023-01-25T06:44:35;50.00;;;33.17;;
13421;SDS011;6782;55.904;13.396;2023-01-25T06:47:22;46.57;;;33.03;;
13421;SDS011;6782;55.904;13.396;2023-01-25T06:50:09;42.90;;;30.53;;
13421;SDS011;6782;55.904;13.396;2023-01-25T06:52:57;46.27;;;32.83;;
13421;SDS011;6782;55.904;13.396;2023-01-25T06:55:46;44.70;;;31.57;;
13421;SDS011;6782;55.904;13.396;2023-01-25T06:58:33;46.00;;;31.53;;
13421;SDS011;6782;55.904;13.396;2023-01-25T07:01:22;45.27;;;33.03;;
13421;SDS011;6782;55.904;13.396;2023-01-25T07:04:11;42.67;;;30.57;;
13421;SDS011;6782;55.904;13.396;2023-01-25T07:06:58;46.87;;;34.37;;
13421;SDS011;6782;55.904;13.396;2023-01-25T07:09:46;44.23;;;32.00;;
13421;SDS011;6782;55.904;13.396;2023-01-25T07:12:35;45.63;;;31.40;;
13421;SDS011;6782;55.904;13.396;2023-01-25T07:15:22;45.83;;;31.60;;
13421;SDS011;6782;55.904;13.396;2023-01-25T07:18:10;46.50;;;31.77;;
13421;SDS011;6782;55.904;13.396;2023-01-25T07:21:01;46.97;;;32.73;;
13421;SDS011;6782;55.904;13.396;2023-01-25T07:23:50;48.40;;;33.67;;
13421;SDS011;6782;55.904;13.396;2023-01-25T07:26:38;52.47;;;35.00;;
13421;SDS011;6782;55.904;13.396;2023-01-25T07:29:27;49.80;;;34.07;;
13421;SDS011;6782;55.904;13.396;2023-01-25T07:32:14;50.63;;;33.23;;
13421;SDS011;6782;55.904;13.396;2023-01-25T07:35:01;54.33;;;35.17;;
13421;SDS011;6782;55.904;13.396;2023-01-25T07:37:48;54.27;;;33.17;;
13421;SDS011;6782;55.904;13.396;2023-01-25T07:40:36;51.33;;;34.43;;
13421;SDS011;6782;55.904;13.396;2023-01-25T07:43:23;50.60;;;34.80;;
13421;SDS011;6782;55.904;13.396;2023-01-25T07:46:13;52.57;;;34.87;;
13421;SDS011;6782;55.904;13.396;2023-01-25T07:49:01;52.20;;;34.80;;
13421;SDS011;6782;55.904;13.396;2023-01-25T07:51:48;51.10;;;34.07;;
13421;SDS011;6782;55.904;13.396;2023-01-25T07:54:35;52.23;;;36.77;;
13421;SDS011;6782;55.904;13.396;2023-01-25T07:57:23;55.47;;;36.57;;
13421;SDS011;6782;55.904;13.396;2023-01-25T08:00:10;54.83;;;37.27;;
13421;SDS011;6782;55.904;13.396;2023-01-25T08:03:00;52.27;;;35.90;;
13421;SDS011;6782;55.904;13.396;2023-01-25T08:05:47;49.43;;;33.07;;
13421;SDS011;6782;55.904;13.396;2023-01-25T08:08:35;53.57;;;36.10;;
13421;SDS011;6782;55.904;13.396;2023-01-25T08:11:24;55.80;;;36.37;;
13421;SDS011;6782;55.904;13.396;2023-01-25T08:14:12;57.50;;;38.43;;
13421;SDS011;6782;55.904;13.396;2023-01-25T08:16:59;48.63;;;35.07;;
13421;SDS011;6782;55.904;13.396;2023-01-25T08:19:49;57.30;;;38.10;;
13421;SDS011;6782;55.904;13.396;2023-01-25T08:22:36;52.70;;;36.03;;
13421;SDS011;6782;55.904;13.396;2023-01-25T08:25:23;54.67;;;37.03;;
13421;SDS011;6782;55.904;13.396;2023-01-25T08:28:11;51.93;;;36.63;;
13421;SDS011;6782;55.904;13.396;2023-01-25T08:31:05;53.43;;;38.17;;
13421;SDS011;6782;55.904;13.396;2023-01-25T08:33:53;58.27;;;40.47;;
13421;SDS011;6782;55.904;13.396;2023-01-25T08:36:42;55.73;;;38.43;;
13421;SDS011;6782;55.904;13.396;2023-01-25T08:39:29;54.90;;;37.63;;
13421;SDS011;6782;55.904;13.396;2023-01-25T08:42:16;56.63;;;39.83;;
13421;SDS011;6782;55.904;13.396;2023-01-25T08:45:04;56.23;;;37.40;;
13421;SDS011;6782;55.904;13.396;2023-01-25T08:47:51;56.57;;;38.90;;
13421;SDS011;6782;55.904;13.396;2023-01-25T08:50:38;51.87;;;38.20;;
13421;SDS011;6782;55.904;13.396;2023-01-25T08:53:27;55.13;;;38.90;;
13421;SDS011;6782;55.904;13.396;2023-01-25T08:56:15;51.67;;;39.37;;
13421;SDS011;6782;55.904;13.396;2023-01-25T08:59:03;52.77;;;38.47;;
13421;SDS011;6782;55.904;13.396;2023-01-25T09:01:50;51.80;;;38.17;;
13421;SDS011;6782;55.904;13.396;2023-01-25T09:04:37;54.33;;;40.07;;
13421;SDS011;6782;55.904;13.396;2023-01-25T09:07:24;52.03;;;38.60;;
13421;SDS011;6782;55.904;13.396;2023-01-25T09:10:14;55.30;;;38.90;;
13421;SDS011;6782;55.904;13.396;2023-01-25T09:13:01;51.27;;;37.67;;
13421;SDS011;6782;55.904;13.396;2023-01-25T09:15:49;51.47;;;37.53;;
13421;SDS011;6782;55.904;13.396;2023-01-25T09:18:36;54.43;;;38.43;;
13421;SDS011;6782;55.904;13.396;2023-01-25T09:21:25;52.20;;;37.37;;
13421;SDS011;6782;55.904;13.396;2023-01-25T09:24:13;52.87;;;36.53;;
13421;SDS011;6782;55.904;13.396;2023-01-25T09:27:02;49.17;;;36.47;;
13421;SDS011;6782;55.904;13.396;2023-01-25T09:29:49;54.33;;;39.93;;
13421;SDS011;6782;55.904;13.396;2023-01-25T09:32:36;56.20;;;39.17;;
13421;SDS011;6782;55.904;13.396;2023-01-25T09:35:24;55.23;;;39.07;;
13421;SDS011;6782;55.904;13.396;2023-01-25T09:38:15;53.97;;;38.03;;
13421;SDS011;6782;55.904;13.396;2023-01-25T09:41:06;57.90;;;39.90;;
13421;SDS011;6782;55.904;13.396;2023-01-25T09:44:11;49.20;;;37.10;;
13421;SDS011;6782;55.904;13.396;2023-01-25T09:47:11;51.67;;;37.97;;
13421;SDS011;6782;55.904;13.396;2023-01-25T09:50:12;51.93;;;39.23;;
13421;SDS011;6782;55.904;13.396;2023-01-25T09:53:21;55.50;;;39.93;;
13421;SDS011;6782;55.904;13.396;2023-01-25T09:56:20;51.70;;;39.50;;
13421;SDS011;6782;55.904;13.396;2023-01-25T09:59:12;52.97;;;37.67;;
13421;SDS011;6782;55.904;13.396;2023-01-25T10:02:04;54.37;;;38.20;;
13421;SDS011;6782;55.904;13.396;2023-01-25T10:05:06;53.40;;;39.27;;
13421;SDS011;6782;55.904;13.396;2023-01-25T10:08:01;51.80;;;37.50;;
13421;SDS011;6782;55.904;13.396;2023-01-25T10:10:54;62.27;;;40.87;;
13421;SDS011;6782;55.904;13.396;2023-01-25T10:13:47;56.63;;;40.67;;
13421;SDS011;6782;55.904;13.396;2023-01-25T10:16:37;55.00;;;39.23;;
13421;SDS011;6782;55.904;13.396;2023-01-25T10:19:38;57.93;;;40.33;;
13421;SDS011;6782;55.904;13.396;2023-01-25T10:22:36;55.27;;;39.53;;
13421;SDS011;6782;55.904;13.396;2023-01-25T10:25:33;58.97;;;38.47;;
13421;SDS011;6782;55.904;13.396;2023-01-25T10:28:31;58.87;;;40.63;;
13421;SDS011;6782;55.904;13.396;2023-01-25T10:31:28;58.20;;;37.50;;
13421;SDS011;6782;55.904;13.396;2023-01-25T10:34:25;56.63;;;37.07;;
13421;SDS011;6782;55.904;13.396;2023-01-25T10:37:18;59.00;;;38.50;;
13421;SDS011;6782;55.904;13.396;2023-01-25T10:40:12;69.23;;;44.20;;
13421;SDS011;6782;55.904;13.396;2023-01-25T10:43:06;61.70;;;39.20;;
13421;SDS011;6782;55.904;13.396;2023-01-25T10:46:01;59.17;;;38.03;;
13421;SDS011;6782;55.904;13.396;2023-01-25T10:48:48;50.70;;;35.77;;
13421;SDS011;6782;55.904;13.396;2023-01-25T10:51:37;54.90;;;36.27;;
13421;SDS011;6782;55.904;13.396;2023-01-25T10:54:24;56.40;;;36.70;;
13421;SDS011;6782;55.904;13.396;2023-01-25T10:57:13;53.33;;;37.27;;
13421;SDS011;6782;55.904;13.396;2023-01-25T11:00:05;57.97;;;38.53;;
13421;SDS011;6782;55.904;13.396;2023-01-25T11:02:56;53.37;;;36.13;;
13421;SDS011;6782;55.904;13.396;2023-01-25T11:05:44;57.70;;;37.77;;
13421;SDS011;6782;55.904;13.396;2023-01-25T11:08:42;55.53;;;37.17;;
13421;SDS011;6782;55.904;13.396;2023-01-25T11:11:30;57.73;;;38.00;;
13421;SDS011;6782;55.904;13.396;2023-01-25T11:14:21;56.23;;;36.90;;
13421;SDS011;6782;55.904;13.396;2023-01-25T11:17:19;55.33;;;37.93;;
13421;SDS011;6782;55.904;13.396;2023-01-25T11:20:17;57.70;;;37.83;;
13421;SDS011;6782;55.904;13.396;2023-01-25T11:23:17;55.77;;;38.30;;
13421;SDS011;6782;55.904;13.396;2023-01-25T11:26:14;54.97;;;36.63;;
13421;SDS011;6782;55.904;13.396;2023-01-25T11:29:07;52.37;;;36.80;;
13421;SDS011;6782;55.904;13.396;2023-01-25T11:31:59;53.70;;;37.00;;
13421;SDS011;6782;55.904;13.396;2023-01-25T11:34:48;53.63;;;35.83;;
13421;SDS011;6782;55.904;13.396;2023-01-25T11:37:43;48.57;;;33.47;;
13421;SDS011;6782;55.904;13.396;2023-01-25T11:40:44;50.43;;;34.23;;
13421;SDS011;6782;55.904;13.396;2023-01-25T11:43:43;50.23;;;33.67;;
13421;SDS011;6782;55.904;13.396;2023-01-25T11:46:42;50.23;;;34.37;;
13421;SDS011;6782;55.904;13.396;2023-01-25T11:49:44;51.23;;;33.60;;
13421;SDS011;6782;55.904;13.396;2023-01-25T11:52:54;51.13;;;34.80;;
13421;SDS011;6782;55.904;13.396;2023-01-25T11:56:04;48.60;;;31.73;;
13421;SDS011;6782;55.904;13.396;2023-01-25T12:02:21;45.93;;;30.57;;
13421;SDS011;6782;55.904;13.396;2023-01-25T12:05:22;49.50;;;32.93;;
13421;SDS011;6782;55.904;13.396;2023-01-25T12:08:21;46.83;;;33.43;;
13421;SDS011;6782;55.904;13.396;2023-01-25T12:11:20;49.27;;;34.03;;
13421;SDS011;6782;55.904;13.396;2023-01-25T12:14:24;49.63;;;33.97;;
13421;SDS011;6782;55.904;13.396;2023-01-25T12:17:25;47.77;;;32.33;;
13421;SDS011;6782;55.904;13.396;2023-01-25T12:20:27;48.67;;;32.97;;
13421;SDS011;6782;55.904;13.396;2023-01-25T12:23:30;46.33;;;31.37;;
13421;SDS011;6782;55.904;13.396;2023-01-25T12:26:23;46.70;;;32.43;;
13421;SDS011;6782;55.904;13.396;2023-01-25T12:29:17;44.87;;;32.30;;
13421;SDS011;6782;55.904;13.396;2023-01-25T12:32:15;49.23;;;33.27;;
13421;SDS011;6782;55.904;13.396;2023-01-25T12:35:13;45.17;;;31.33;;
13421;SDS011;6782;55.904;13.396;2023-01-25T12:38:09;45.37;;;31.83;;
13421;SDS011;6782;55.904;13.396;2023-01-25T12:41:03;47.27;;;33.07;;
13421;SDS011;6782;55.904;13.396;2023-01-25T12:43:57;46.00;;;32.77;;
13421;SDS011;6782;55.904;13.396;2023-01-25T12:46:56;48.23;;;34.07;;
13421;SDS011;6782;55.904;13.396;2023-01-25T12:49:51;47.13;;;33.03;;
13421;SDS011;6782;55.904;13.396;2023-01-25T12:52:44;47.77;;;34.77;;
13421;SDS011;6782;55.904;13.396;2023-01-25T12:55:35;45.47;;;33.20;;
13421;SDS011;6782;55.904;13.396;2023-01-25T12:58:25;45.50;;;33.60;;
13421;SDS011;6782;55.904;13.396;2023-01-25T13:01:19;50.20;;;34.60;;
13421;SDS011;6782;55.904;13.396;2023-01-25T13:04:21;48.60;;;33.73;;
13421;SDS011;6782;55.904;13.396;2023-01-25T13:07:21;47.27;;;34.77;;
13421;SDS011;6782;55.904;13.396;2023-01-25T13:10:16;51.27;;;35.00;;
13421;SDS011;6782;55.904;13.396;2023-01-25T13:13:19;49.17;;;33.80;;
13421;SDS011;6782;55.904;13.396;2023-01-25T13:19:39;50.43;;;35.00;;
13421;SDS011;6782;55.904;13.396;2023-01-25T13:25:43;49.90;;;33.40;;
13421;SDS011;6782;55.904;13.396;2023-01-25T13:28:40;52.10;;;36.90;;
13421;SDS011;6782;55.904;13.396;2023-01-25T13:31:42;51.63;;;36.33;;
13421;SDS011;6782;55.904;13.396;2023-01-25T13:37:44;53.17;;;37.43;;
13421;SDS011;6782;55.904;13.396;2023-01-25T13:40:43;55.50;;;38.37;;
13421;SDS011;6782;55.904;13.396;2023-01-25T13:43:30;109.13;;;70.77;;
13421;SDS011;6782;55.904;13.396;2023-01-25T13:46:18;55.00;;;37.83;;
13421;SDS011;6782;55.904;13.396;2023-01-25T13:49:14;49.03;;;36.23;;
13421;SDS011;6782;55.904;13.396;2023-01-25T13:52:11;51.67;;;36.27;;
13421;SDS011;6782;55.904;13.396;2023-01-25T13:55:14;51.87;;;36.53;;
13421;SDS011;6782;55.904;13.396;2023-01-25T13:58:10;51.53;;;37.50;;
13421;SDS011;6782;55.904;13.396;2023-01-25T14:01:03;54.77;;;37.80;;
13421;SDS011;6782;55.904;13.396;2023-01-25T14:03:53;55.50;;;39.57;;
13421;SDS011;6782;55.904;13.396;2023-01-25T14:06:45;51.03;;;34.87;;
13421;SDS011;6782;55.904;13.396;2023-01-25T14:09:35;48.07;;;34.47;;
13421;SDS011;6782;55.904;13.396;2023-01-25T14:12:26;47.17;;;34.70;;
13421;SDS011;6782;55.904;13.396;2023-01-25T14:15:22;47.17;;;34.33;;
13421;SDS011;6782;55.904;13.396;2023-01-25T14:18:12;50.83;;;34.90;;
13421;SDS011;6782;55.904;13.396;2023-01-25T14:21:10;47.67;;;33.73;;
13421;SDS011;6782;55.904;13.396;2023-01-25T14:24:07;46.13;;;32.20;;
13421;SDS011;6782;55.904;13.396;2023-01-25T14:26:57;48.67;;;33.07;;
13421;SDS011;6782;55.904;13.396;2023-01-25T14:29:46;44.37;;;32.20;;
13421;SDS011;6782;55.904;13.396;2023-01-25T14:32:34;43.87;;;32.47;;
13421;SDS011;6782;55.904;13.396;2023-01-25T14:35:32;43.80;;;32.07;;
13421;SDS011;6782;55.904;13.396;2023-01-25T14:38:25;45.17;;;32.40;;
13421;SDS011;6782;55.904;13.396;2023-01-25T14:41:19;46.33;;;31.03;;
13421;SDS011;6782;55.904;13.396;2023-01-25T14:44:12;44.10;;;31.23;;
13421;SDS011;6782;55.904;13.396;2023-01-25T14:47:19;45.57;;;32.40;;
13421;SDS011;6782;55.904;13.396;2023-01-25T14:53:15;43.83;;;29.63;;
13421;SDS011;6782;55.904;13.396;2023-01-25T14:56:12;45.27;;;31.53;;
13421;SDS011;6782;55.904;13.396;2023-01-25T14:59:20;44.40;;;30.33;;
13421;SDS011;6782;55.904;13.396;2023-01-25T15:02:15;43.43;;;30.43;;
13421;SDS011;6782;55.904;13.396;2023-01-25T15:05:15;45.33;;;31.17;;
13421;SDS011;6782;55.904;13.396;2023-01-25T15:08:14;45.57;;;32.27;;
13421;SDS011;6782;55.904;13.396;2023-01-25T15:11:25;44.47;;;32.40;;
13421;SDS011;6782;55.904;13.396;2023-01-25T15:14:24;46.63;;;32.17;;
13421;SDS011;6782;55.904;13.396;2023-01-25T15:20:31;50.13;;;33.23;;
13421;SDS011;6782;55.904;13.396;2023-01-25T15:23:21;43.53;;;32.03;;
13421;SDS011;6782;55.904;13.396;2023-01-25T15:26:13;48.77;;;33.73;;
13421;SDS011;6782;55.904;13.396;2023-01-25T15:29:07;45.30;;;32.17;;
13421;SDS011;6782;55.904;13.396;2023-01-25T15:32:01;49.07;;;33.87;;
13421;SDS011;6782;55.904;13.396;2023-01-25T15:34:48;48.37;;;33.13;;
13421;SDS011;6782;55.904;13.396;2023-01-25T15:37:36;49.00;;;33.23;;
13421;SDS011;6782;55.904;13.396;2023-01-25T15:40:23;47.60;;;32.07;;
13421;SDS011;6782;55.904;13.396;2023-01-25T15:43:11;47.13;;;33.00;;
13421;SDS011;6782;55.904;13.396;2023-01-25T15:45:59;50.63;;;34.27;;
13421;SDS011;6782;55.904;13.396;2023-01-25T15:48:49;48.97;;;33.13;;
13421;SDS011;6782;55.904;13.396;2023-01-25T15:51:37;48.47;;;34.80;;
13421;SDS011;6782;55.904;13.396;2023-01-25T15:54:24;50.47;;;34.03;;
13421;SDS011;6782;55.904;13.396;2023-01-25T15:57:14;49.40;;;33.40;;
13421;SDS011;6782;55.904;13.396;2023-01-25T16:00:14;48.73;;;35.00;;
13421;SDS011;6782;55.904;13.396;2023-01-25T16:03:02;49.60;;;32.97;;
13421;SDS011;6782;55.904;13.396;2023-01-25T16:05:52;49.57;;;34.47;;
13421;SDS011;6782;55.904;13.396;2023-01-25T16:08:42;47.83;;;33.33;;
13421;SDS011;6782;55.904;13.396;2023-01-25T16:11:29;48.90;;;32.30;;
13421;SDS011;6782;55.904;13.396;2023-01-25T16:14:17;48.87;;;34.17;;
13421;SDS011;6782;55.904;13.396;2023-01-25T16:17:05;47.10;;;34.17;;
13421;SDS011;6782;55.904;13.396;2023-01-25T16:19:52;48.23;;;31.77;;
13421;SDS011;6782;55.904;13.396;2023-01-25T16:22:41;46.87;;;33.17;;
13421;SDS011;6782;55.904;13.396;2023-01-25T16:25:29;47.97;;;32.97;;
13421;SDS011;6782;55.904;13.396;2023-01-25T16:28:16;50.63;;;36.67;;
13421;SDS011;6782;55.904;13.396;2023-01-25T16:31:05;47.53;;;33.00;;
13421;SDS011;6782;55.904;13.396;2023-01-25T16:33:56;46.27;;;31.90;;
13421;SDS011;6782;55.904;13.396;2023-01-25T16:36:43;46.60;;;32.57;;
13421;SDS011;6782;55.904;13.396;2023-01-25T16:39:36;46.93;;;33.60;;
13421;SDS011;6782;55.904;13.396;2023-01-25T16:42:23;46.23;;;33.53;;
13421;SDS011;6782;55.904;13.396;2023-01-25T16:45:11;44.20;;;32.37;;
13421;SDS011;6782;55.904;13.396;2023-01-25T16:47:59;42.97;;;30.83;;
13421;SDS011;6782;55.904;13.396;2023-01-25T16:50:48;43.27;;;30.47;;
13421;SDS011;6782;55.904;13.396;2023-01-25T16:53:35;46.20;;;33.27;;
13421;SDS011;6782;55.904;13.396;2023-01-25T16:56:25;46.40;;;33.17;;
13421;SDS011;6782;55.904;13.396;2023-01-25T16:59:14;47.80;;;33.67;;